Time;durP1;ratioP1;P1;durP2;ratioP2;P2;SDS_P1;SDS_P2;PMS_P1;PMS_P2;Temp;Humidity;BMP_temperature;BMP_pressure;BME280_temperature;BME280_humidity;BME280_pressure;Samples;Min_cycle;Max_cycle;Signal;HPM_P1;HPM_P2
2023/03/08 00:01:21;;;;;;;3.08;0.95;;;;;;;-2.65;100.00;98932.13;5028102;28;20052;-73
2023/03/08 00:03:49;;;;;;;5.10;1.77;;;;;;;-2.64;100.00;98925.97;5041857;28;20045;-73
2023/03/08 00:06:15;;;;;;;5.95;1.10;;;;;;;-2.72;100.00;98910.06;5042859;28;20115;-73
2023/03/08 00:08:41;;;;;;;5.03;1.17;;;;;;;-2.66;100.00;98920.03;5041416;28;20120;-73
2023/03/08 00:11:08;;;;;;;7.25;1.42;;;;;;;-2.64;100.00;98930.34;5044162;28;20032;-73
2023/03/08 00:13:34;;;;;;;7.75;1.20;;;;;;;-2.71;100.00;98923.97;5041490;28;20482;-70
2023/03/08 00:16:00;;;;;;;3.10;1.05;;;;;;;-2.71;100.00;98932.63;5042165;28;20060;-74
2023/03/08 00:18:26;;;;;;;6.13;1.17;;;;;;;-2.64;100.00;98946.84;5027167;28;20044;-73
2023/03/08 00:21:06;;;;;;;4.18;1.10;;;;;;;-2.47;100.00;98976.03;5024119;28;20072;-72
2023/03/08 00:23:32;;;;;;;7.75;1.17;;;;;;;-2.42;100.00;98973.88;5023268;28;20408;-73
2023/03/08 00:25:57;;;;;;;4.05;1.23;;;;;;;-2.43;100.00;98972.22;5027437;28;20033;-73
2023/03/08 00:28:23;;;;;;;4.57;1.30;;;;;;;-2.42;100.00;98971.25;5042073;28;20592;-73
2023/03/08 00:30:58;;;;;;;5.68;1.40;;;;;;;-2.29;100.00;98986.81;5041442;28;20126;-72
2023/03/08 00:33:24;;;;;;;2.88;0.98;;;;;;;-2.10;100.00;99007.06;5041721;28;20036;-71
2023/03/08 00:36:14;;;;;;;8.05;1.50;;;;;;;-2.18;100.00;98982.38;5021785;28;20037;-73
2023/03/08 00:38:39;;;;;;;8.65;1.50;;;;;;;-2.30;100.00;98951.97;5039756;28;20430;-73
2023/03/08 00:41:05;;;;;;;9.13;1.10;;;;;;;-2.25;100.00;98962.88;5040946;28;20013;-73
2023/03/08 00:43:31;;;;;;;;;;;;;;;-2.29;100.00;98968.50;5041164;28;20323;-74
2023/03/08 00:45:56;;;;;;;7.25;2.38;;;;;;;-2.22;100.00;98977.50;5042217;28;19912;-73
2023/03/08 00:48:22;;;;;;;3.58;1.30;;;;;;;-2.26;100.00;98979.53;5042079;28;20301;-74
2023/03/08 00:50:47;;;;;;;7.18;1.10;;;;;;;-2.30;100.00;98977.28;5039372;28;20482;-72
2023/03/08 00:53:13;;;;;;;4.40;0.90;;;;;;;-2.23;100.00;98994.13;5042283;28;20497;-73
2023/03/08 00:55:54;;;;;;;4.47;1.33;;;;;;;-2.27;100.00;98993.56;5040352;28;20046;-73
2023/03/08 00:58:20;;;;;;;2.65;1.45;;;;;;;-2.19;100.00;98995.56;5027191;28;20289;-72
2023/03/08 01:00:45;;;;;;;6.00;1.23;;;;;;;-2.31;100.00;98983.47;5038891;28;20064;-73
2023/03/08 01:03:12;;;;;;;22.95;1.50;;;;;;;-2.29;100.00;98995.47;5041792;28;20564;-73
2023/03/08 01:05:48;;;;;;;11.73;1.30;;;;;;;-2.25;100.00;99011.72;5040026;28;20087;-73
2023/03/08 01:08:16;;;;;;;10.63;2.13;;;;;;;-2.18;100.00;99031.19;5026953;28;20032;-72
2023/03/08 01:10:50;;;;;;;3.72;1.13;;;;;;;-2.17;100.00;99040.72;5039860;28;20037;-72
2023/03/08 01:13:16;;;;;;;5.28;1.10;;;;;;;-2.10;100.00;99051.50;5040371;28;20032;-74
2023/03/08 01:15:42;;;;;;;1.98;1.33;;;;;;;-2.18;100.00;99039.91;5021960;28;20041;-72
2023/03/08 01:18:08;;;;;;;5.40;1.27;;;;;;;-2.15;100.00;99057.13;5026931;28;20396;-73
2023/03/08 01:20:33;;;;;;;6.40;1.13;;;;;;;-2.18;100.00;99049.50;5023406;28;20036;-70
2023/03/08 01:23:01;;;;;;;1.50;1.17;;;;;;;-2.10;100.00;99069.81;5041849;28;20029;-73
2023/03/08 01:25:27;;;;;;;5.82;2.05;;;;;;;-2.22;100.00;99062.00;5022492;28;20110;-72
2023/03/08 01:27:52;;;;;;;4.97;1.55;;;;;;;-2.33;100.00;99046.34;5039197;28;20033;-72
2023/03/08 01:30:18;;;;;;;5.32;1.98;;;;;;;-2.24;100.00;99063.91;5026908;28;20880;-72
2023/03/08 01:32:43;;;;;;;3.78;0.90;;;;;;;-2.25;100.00;99070.06;5039931;28;20067;-70
2023/03/08 01:35:09;;;;;;;2.67;1.20;;;;;;;-2.30;100.00;99069.59;5041347;28;20104;-71
2023/03/08 01:37:34;;;;;;;2.92;1.10;;;;;;;-2.25;100.00;99079.69;5022122;28;20041;-73
2023/03/08 01:40:00;;;;;;;4.57;1.20;;;;;;;-2.14;100.00;99083.13;5023797;28;20143;-73
2023/03/08 01:42:27;;;;;;;5.18;1.58;;;;;;;-2.10;100.00;99073.25;5025734;28;20223;-73
2023/03/08 01:44:54;;;;;;;4.57;1.48;;;;;;;-2.15;100.00;99063.16;5022634;28;20051;-71
2023/03/08 01:47:27;;;;;;;5.28;2.08;;;;;;;-2.04;100.00;99066.69;5040270;28;20533;-73
2023/03/08 01:50:14;;;;;;;7.07;2.30;;;;;;;-2.07;100.00;99061.72;5020901;28;20037;-73
2023/03/08 01:52:47;;;;;;;5.03;2.22;;;;;;;-2.08;100.00;99060.03;5021661;28;20043;-73
2023/03/08 01:55:14;;;;;;;13.15;3.08;;;;;;;-2.07;100.00;99066.94;5026066;28;20491;-72
2023/03/08 01:57:52;;;;;;;17.23;4.03;;;;;;;-2.01;100.00;99077.75;5021952;28;20599;-73
2023/03/08 02:00:21;;;;;;;8.38;2.70;;;;;;;-1.98;100.00;99087.13;5021956;28;20485;-72
2023/03/08 02:02:59;;;;;;;5.43;3.58;;;;;;;-1.93;100.00;99085.81;5022328;28;20064;-73
2023/03/08 02:05:26;;;;;;;6.65;3.25;;;;;;;-1.89;100.00;99091.63;5039164;28;20087;-73
2023/03/08 02:07:57;;;;;;;8.85;4.50;;;;;;;-1.81;100.00;99110.13;5028603;28;20106;-72
2023/03/08 02:10:26;;;;;;;11.80;4.47;;;;;;;-1.72;100.00;99112.03;5025162;28;20037;-73
2023/03/08 02:12:53;;;;;;;8.82;5.47;;;;;;;-1.74;100.00;99111.31;5039299;28;20385;-73
2023/03/08 02:15:20;;;;;;;10.85;5.35;;;;;;;-1.65;100.00;99122.81;5039825;28;20138;-71
2023/03/08 02:17:49;;;;;;;13.00;5.78;;;;;;;-1.61;100.00;99120.81;5016672;28;20029;-73
2023/03/08 02:20:21;;;;;;;15.77;6.88;;;;;;;-1.50;100.00;99131.19;5026042;28;20505;-73
2023/03/08 02:22:48;;;;;;;19.13;6.80;;;;;;;-1.46;100.00;99131.81;5039941;28;20040;-73
2023/03/08 02:25:18;;;;;;;14.27;5.90;;;;;;;-1.46;100.00;99131.81;5025783;28;20028;-73
2023/03/08 02:27:44;;;;;;;10.98;5.80;;;;;;;-1.42;100.00;99141.91;5021451;28;20045;-73
2023/03/08 02:30:13;;;;;;;9.93;6.40;;;;;;;-1.47;100.00;99140.63;5039839;28;20033;-73
2023/03/08 02:32:38;;;;;;;9.50;5.40;;;;;;;-1.51;100.00;99133.00;5039047;28;20065;-71
2023/03/08 02:35:04;;;;;;;15.30;5.53;;;;;;;-1.55;100.00;99144.66;5025790;28;20111;-73
2023/03/08 02:37:33;;;;;;;7.68;3.58;;;;;;;-1.59;100.00;99134.56;5025758;28;20063;-73
2023/03/08 02:39:58;;;;;;;7.78;3.42;;;;;;;-1.63;100.00;99138.41;5038548;28;20120;-70
2023/03/08 02:42:24;;;;;;;7.82;3.20;;;;;;;-1.67;100.00;99126.53;5025168;28;20025;-74
2023/03/08 02:44:49;;;;;;;7.45;2.42;;;;;;;-1.61;100.00;99137.31;5031142;28;20299;-73
2023/03/08 02:47:15;;;;;;;8.57;3.25;;;;;;;-1.66;100.00;99122.94;5044267;28;20029;-74
2023/03/08 02:49:40;;;;;;;7.00;3.58;;;;;;;-1.72;100.00;99119.88;5041978;28;20044;-72
2023/03/08 02:52:07;;;;;;;10.52;5.03;;;;;;;-1.63;100.00;99120.09;5042711;28;20029;-72
2023/03/08 02:54:33;;;;;;;12.82;4.85;;;;;;;-1.59;100.00;99119.72;5042590;28;20033;-73
2023/03/08 02:56:59;;;;;;;11.45;5.13;;;;;;;-1.51;100.00;99119.09;5042687;28;20056;-72
2023/03/08 02:59:25;;;;;;;11.23;6.13;;;;;;;-1.52;100.00;99115.66;5012360;28;20060;-73
2023/03/08 03:01:51;;;;;;;17.50;6.45;;;;;;;-1.50;100.00;99108.50;5025306;28;20043;-73
2023/03/08 03:04:17;;;;;;;12.02;6.45;;;;;;;-1.49;100.00;99114.56;5029175;28;20029;-72
2023/03/08 03:06:42;;;;;;;10.00;5.20;;;;;;;-1.51;100.00;99119.09;5024896;28;20044;-73
2023/03/08 03:09:11;;;;;;;13.13;6.65;;;;;;;-1.54;100.00;99101.03;5029249;28;20416;-73
2023/03/08 03:11:39;;;;;;;11.27;6.05;;;;;;;-1.59;100.00;99087.47;5024178;28;20037;-73
2023/03/08 03:14:04;;;;;;;10.60;5.50;;;;;;;-1.63;100.00;99081.66;5042735;28;20052;-73
2023/03/08 03:16:36;;;;;;;15.30;5.75;;;;;;;-1.60;100.00;99093.66;5011634;28;20040;-73
2023/03/08 03:19:01;;;;;;;14.25;6.68;;;;;;;-1.59;100.00;99097.94;5022878;28;20043;-72
2023/03/08 03:21:26;;;;;;;16.60;6.00;;;;;;;-1.53;100.00;99092.19;5026910;28;20040;-74
2023/03/08 03:23:54;;;;;;;10.63;5.70;;;;;;;-1.55;100.00;99094.94;5041877;28;20020;-73
2023/03/08 03:26:24;;;;;;;11.73;6.13;;;;;;;-1.52;100.00;99099.13;5027960;28;20426;-73
2023/03/08 03:28:55;;;;;;;11.40;6.13;;;;;;;-1.38;100.00;99117.13;5025139;28;20029;-74
2023/03/08 03:31:22;;;;;;;13.32;5.47;;;;;;;-1.44;100.00;99109.78;5028455;28;20029;-73
2023/03/08 03:33:48;;;;;;;27.20;6.50;;;;;;;-1.32;100.00;99121.03;5024622;28;20034;-73
2023/03/08 03:36:17;;;;;;;10.48;5.43;;;;;;;-1.48;100.00;99095.25;5022941;28;20057;-73
2023/03/08 03:38:43;;;;;;;10.30;4.80;;;;;;;-1.59;100.00;99096.16;5007324;28;20044;-71
2023/03/08 03:41:11;;;;;;;10.77;5.00;;;;;;;-1.57;100.00;99096.03;5028462;28;20385;-72
2023/03/08 03:43:38;;;;;;;9.82;4.18;;;;;;;-1.60;100.00;99094.47;5024329;28;20025;-73
2023/03/08 03:46:11;;;;;;;8.02;4.43;;;;;;;-1.66;100.00;99091.53;5028304;28;20033;-73
2023/03/08 03:48:37;;;;;;;8.32;4.28;;;;;;;-1.71;100.00;99087.53;5014380;28;20033;-73
2023/03/08 03:51:09;;;;;;;;;;;;;;;-1.74;100.00;99081.69;5028029;28;20119;-73
2023/03/08 03:53:37;;;;;;;13.30;4.35;;;;;;;-1.77;100.00;99076.72;5024353;28;19924;-71
2023/03/08 03:56:11;;;;;;;12.82;4.70;;;;;;;-1.69;100.00;99082.16;5008413;28;20021;-70
2023/03/08 03:58:36;;;;;;;7.65;4.22;;;;;;;-1.65;100.00;99085.38;5023978;28;20045;-73
2023/03/08 04:01:11;;;;;;;6.57;2.90;;;;;;;-1.70;100.00;99090.97;5028114;28;20501;-73
2023/03/08 04:03:36;;;;;;;5.93;3.15;;;;;;;-1.66;100.00;99084.53;5023989;28;20033;-73
2023/03/08 04:06:22;;;;;;;7.05;3.42;;;;;;;-1.63;100.00;99086.91;5028252;28;20051;-73
2023/03/08 04:08:54;;;;;;;6.70;3.15;;;;;;;-1.63;100.00;99086.91;5029621;28;20037;-72
2023/03/08 04:11:22;;;;;;;10.10;3.35;;;;;;;-1.64;100.00;99085.25;5041301;28;20039;-74
2023/03/08 04:13:49;;;;;;;6.25;3.00;;;;;;;-1.68;100.00;99072.53;5023969;28;20037;-70
2023/03/08 04:16:18;;;;;;;5.03;2.33;;;;;;;-1.78;100.00;99068.06;5027142;28;20032;-74
2023/03/08 04:18:44;;;;;;;3.03;2.20;;;;;;;-1.74;100.00;99073.84;5007378;28;20359;-73
2023/03/08 04:21:10;;;;;;;9.07;3.28;;;;;;;-1.74;100.00;99069.44;5027946;28;20021;-73
2023/03/08 04:23:36;;;;;;;;;;;;;;;-1.73;100.00;99070.28;5024515;28;20025;-73
2023/03/08 04:26:04;;;;;;;4.00;2.05;;;;;;;-1.73;100.00;99071.13;5028120;28;19919;-70
2023/03/08 04:28:30;;;;;;;3.72;1.73;;;;;;;-1.71;100.00;99078.81;5025093;28;20533;-72
2023/03/08 04:30:56;;;;;;;3.20;2.08;;;;;;;-1.70;100.00;99080.50;5024712;28;20108;-73
2023/03/08 04:33:22;;;;;;;4.05;2.00;;;;;;;-1.72;100.00;99092.88;5042956;28;20632;-73
2023/03/08 04:35:49;;;;;;;3.25;2.00;;;;;;;-1.66;100.00;99094.16;5024214;28;20088;-73
2023/03/08 04:38:17;;;;;;;5.65;2.25;;;;;;;-1.61;100.00;99103.31;5027705;28;20115;-73
2023/03/08 04:41:00;;;;;;;5.95;2.10;;;;;;;-1.56;100.00;99108.16;5024476;28;20039;-73
2023/03/08 04:43:31;;;;;;;4.05;1.90;;;;;;;-1.51;100.00;99106.00;5026356;28;20039;-73
2023/03/08 04:45:59;;;;;;;4.63;2.00;;;;;;;-1.46;100.00;99122.16;5018937;28;20029;-73
2023/03/08 04:48:25;;;;;;;7.50;2.47;;;;;;;-1.43;100.00;99123.69;5026871;28;20492;-73
2023/03/08 04:50:56;;;;;;;4.90;2.55;;;;;;;-1.38;100.00;99122.38;5023893;28;20459;-73
2023/03/08 04:53:24;;;;;;;2.47;1.55;;;;;;;-1.40;100.00;99121.66;5040758;28;20572;-72
2023/03/08 04:55:50;;;;;;;2.95;1.80;;;;;;;-1.40;100.00;99124.28;5039724;28;20116;-73
2023/03/08 04:58:17;;;;;;;3.45;1.92;;;;;;;-1.38;100.00;99124.13;5027349;28;20072;-73
2023/03/08 05:00:42;;;;;;;4.00;2.05;;;;;;;-1.46;100.00;99109.06;5022149;28;20075;-74
2023/03/08 05:03:09;;;;;;;3.83;1.95;;;;;;;-1.46;100.00;99110.84;5027306;28;20025;-71
2023/03/08 05:05:34;;;;;;;8.73;2.47;;;;;;;-1.47;100.00;99106.59;5022807;28;20405;-73
2023/03/08 05:08:04;;;;;;;6.07;3.50;;;;;;;-1.42;100.00;99118.34;5027005;28;20025;-73
2023/03/08 05:10:31;;;;;;;5.30;3.08;;;;;;;-1.49;100.00;99104.09;5022161;28;20044;-73
2023/03/08 05:12:56;;;;;;;;;;;;;;;-1.53;100.00;99113.97;5019695;28;20056;-72
2023/03/08 05:15:22;;;;;;;6.53;3.88;;;;;;;-1.51;100.00;99109.44;5026655;28;20389;-73
2023/03/08 05:17:48;;;;;;;8.35;4.70;;;;;;;-1.47;100.00;99117.06;5039546;28;20037;-71
2023/03/08 05:20:15;;;;;;;11.02;4.90;;;;;;;-1.54;100.00;99106.25;5041948;28;20036;-73
2023/03/08 05:22:42;;;;;;;10.80;5.25;;;;;;;-1.53;100.00;99106.13;5022513;28;20108;-73
2023/03/08 05:25:09;;;;;;;12.10;5.55;;;;;;;-1.59;100.00;99105.78;5023789;28;20043;-70
2023/03/08 05:27:35;;;;;;;13.65;6.38;;;;;;;-1.61;100.00;99107.72;5022198;28;20097;-73
2023/03/08 05:30:05;;;;;;;14.10;6.43;;;;;;;-1.56;100.00;99102.94;5026697;28;20390;-73
2023/03/08 05:32:31;;;;;;;14.88;6.32;;;;;;;-1.63;100.00;99102.59;5008645;28;20064;-74
2023/03/08 05:34:56;;;;;;;13.75;6.68;;;;;;;-1.66;100.00;99096.75;5035086;28;20055;-73
2023/03/08 05:37:29;;;;;;;11.38;7.22;;;;;;;-1.60;100.00;99101.50;5039291;28;20123;-72
2023/03/08 05:39:59;;;;;;;11.30;6.47;;;;;;;-1.60;100.00;99104.13;5022201;28;20060;-74
2023/03/08 05:42:26;;;;;;;15.18;8.55;;;;;;;-1.59;100.00;99103.16;5039156;28;20067;-73
2023/03/08 05:44:52;;;;;;;16.77;7.40;;;;;;;-1.58;100.00;99102.22;5027946;28;20057;-73
2023/03/08 05:47:22;;;;;;;14.70;7.40;;;;;;;-1.52;100.00;99110.41;5010698;28;20025;-73
2023/03/08 05:49:48;;;;;;;12.65;7.32;;;;;;;-1.70;100.00;99104.88;5027772;28;20041;-71
2023/03/08 05:52:15;;;;;;;17.30;8.93;;;;;;;-1.75;100.00;99093.97;5025790;28;20025;-73
2023/03/08 05:54:40;;;;;;;16.13;8.32;;;;;;;-1.73;100.00;99104.31;5005473;28;20030;-71
2023/03/08 05:57:10;;;;;;;15.77;7.85;;;;;;;-1.70;100.00;99107.50;5026312;28;20478;-73
2023/03/08 05:59:36;;;;;;;25.42;10.63;;;;;;;-1.72;100.00;99109.41;5022043;28;20036;-73
2023/03/08 06:02:02;;;;;;;;;;;;;;;-1.61;100.00;99118.19;5024950;28;20037;-73
2023/03/08 06:04:35;;;;;;;18.58;10.38;;;;;;;-1.68;100.00;99119.63;5026610;28;19959;-73
2023/03/08 06:07:01;;;;;;;23.33;9.60;;;;;;;-1.56;100.00;99134.34;5041550;28;20079;-74
2023/03/08 06:09:33;;;;;;;21.05;9.55;;;;;;;-1.56;100.00;99131.72;5040184;28;20118;-72
2023/03/08 06:11:58;;;;;;;18.77;10.30;;;;;;;-1.50;100.00;99139.91;5040048;28;20075;-72
2023/03/08 06:14:24;;;;;;;21.00;10.82;;;;;;;-1.44;100.00;99141.19;5011740;28;20041;-74
2023/03/08 06:16:50;;;;;;;17.55;9.65;;;;;;;-1.51;100.00;99145.25;5026903;28;20187;-74
2023/03/08 06:19:18;;;;;;;20.30;10.63;;;;;;;-1.49;100.00;99152.03;5014698;28;20029;-71
2023/03/08 06:21:45;;;;;;;19.77;10.18;;;;;;;-1.42;100.00;99152.38;5030147;28;20025;-72
2023/03/08 06:24:10;;;;;;;21.77;10.70;;;;;;;-1.40;100.00;99155.69;5029920;28;20067;-73
2023/03/08 06:26:36;;;;;;;21.65;11.05;;;;;;;-1.43;100.00;99149.88;5042241;28;20398;-74
2023/03/08 06:29:02;;;;;;;22.20;11.25;;;;;;;-1.46;100.00;99150.13;5045505;28;20112;-73
2023/03/08 06:31:29;;;;;;;18.65;9.77;;;;;;;-1.50;100.00;99149.53;5028395;28;20120;-73
2023/03/08 06:33:56;;;;;;;20.25;10.25;;;;;;;-1.58;100.00;99146.72;5045646;28;20067;-74
2023/03/08 06:36:24;;;;;;;21.15;10.90;;;;;;;-1.59;100.00;99155.50;5028164;28;20044;-74
2023/03/08 06:38:50;;;;;;;26.33;11.35;;;;;;;-1.54;100.00;99150.75;5045453;28;20384;-73
2023/03/08 06:41:17;;;;;;;21.75;9.82;;;;;;;-1.53;100.00;99150.59;5029999;28;20069;-72
2023/03/08 06:43:45;;;;;;;20.95;10.88;;;;;;;-1.37;100.00;99158.06;5031069;28;20505;-71
2023/03/08 06:46:13;;;;;;;20.33;10.40;;;;;;;-1.42;100.00;99151.53;5030442;28;20055;-71
2023/03/08 06:48:40;;;;;;;23.17;11.68;;;;;;;-1.38;100.00;99145.94;5030498;28;20044;-71
2023/03/08 06:51:05;;;;;;;22.02;9.95;;;;;;;-1.23;100.00;99156.09;5030011;28;20021;-73
2023/03/08 06:53:31;;;;;;;23.77;10.70;;;;;;;-1.31;100.00;99144.47;5047066;28;20469;-73
2023/03/08 06:56:01;;;;;;;17.20;9.32;;;;;;;-1.23;100.00;99141.22;5030043;28;20082;-72
2023/03/08 06:58:29;;;;;;;22.77;9.80;;;;;;;-1.16;100.00;99139.75;5030263;28;20123;-73
2023/03/08 07:00:55;;;;;;;18.33;9.68;;;;;;;-1.18;100.00;99125.13;5030005;28;20029;-72
2023/03/08 07:03:20;;;;;;;15.45;9.13;;;;;;;-1.02;100.00;99132.53;5048004;28;20029;-72
2023/03/08 07:05:45;;;;;;;16.75;8.95;;;;;;;-0.89;100.00;99126.16;5047598;28;20037;-72
2023/03/08 07:08:11;;;;;;;13.75;7.93;;;;;;;-0.89;100.00;99120.06;5048150;28;20069;-71
2023/03/08 07:10:36;;;;;;;15.40;8.85;;;;;;;-0.88;100.00;99108.63;5046090;28;20059;-70
2023/03/08 07:13:02;;;;;;;16.27;8.80;;;;;;;-0.80;100.00;99106.19;5047192;28;20590;-70
2023/03/08 07:15:28;;;;;;;13.73;7.88;;;;;;;-0.93;100.00;99084.63;5047802;28;20037;-73
2023/03/08 07:17:55;;;;;;;15.93;8.32;;;;;;;-0.73;100.00;99088.16;5047648;28;20028;-73
2023/03/08 07:20:22;;;;;;;12.45;6.93;;;;;;;-0.80;100.00;99076.53;5047566;28;20035;-75
2023/03/08 07:22:47;;;;;;;12.20;7.57;;;;;;;-0.83;100.00;99066.31;5047809;28;20021;-71
2023/03/08 07:25:15;;;;;;;13.90;6.90;;;;;;;-0.97;100.00;99062.25;5045507;28;20029;-73
2023/03/08 07:27:40;;;;;;;12.88;8.07;;;;;;;-0.78;100.00;99066.75;5047237;28;20043;-72
2023/03/08 07:30:09;;;;;;;11.75;7.57;;;;;;;-0.66;100.00;99058.69;5048114;28;20025;-71
2023/03/08 07:32:35;;;;;;;10.90;7.05;;;;;;;-0.53;100.00;99050.56;5047057;28;20490;-71
2023/03/08 07:35:01;;;;;;;11.95;6.55;;;;;;;-0.69;100.00;99045.81;5029131;28;20025;-71
2023/03/08 07:37:26;;;;;;;11.65;7.28;;;;;;;-0.87;100.00;99035.16;5049402;28;20461;-71
2023/03/08 07:39:52;;;;;;;10.88;6.93;;;;;;;-0.91;100.00;99027.69;5047640;28;20039;-70
2023/03/08 07:42:17;;;;;;;11.90;7.00;;;;;;;-0.98;100.00;99027.38;5029308;28;21001;-71
2023/03/08 07:44:48;;;;;;;16.70;7.63;;;;;;;-0.94;100.00;99022.69;5045664;28;20029;-73
2023/03/08 07:47:14;;;;;;;11.43;6.45;;;;;;;-0.91;100.00;99028.50;5047160;28;20071;-71
2023/03/08 07:49:39;;;;;;;11.60;6.65;;;;;;;-0.93;100.00;99025.19;5047294;28;20493;-72
2023/03/08 07:52:05;;;;;;;10.60;6.28;;;;;;;-0.99;100.00;99019.63;5045822;28;20385;-71
2023/03/08 07:54:30;;;;;;;9.38;6.10;;;;;;;-0.80;100.00;99037.22;5029261;28;20090;-71
2023/03/08 07:56:56;;;;;;;13.75;7.35;;;;;;;-0.62;100.00;99030.41;5046484;28;20029;-72
2023/03/08 07:59:22;;;;;;;13.10;8.02;;;;;;;-0.67;100.00;99022.94;5045453;28;20029;-73
2023/03/08 08:01:48;;;;;;;14.85;7.90;;;;;;;-0.61;100.00;99011.06;5046645;28;20892;-73
2023/03/08 08:04:13;;;;;;;13.13;7.93;;;;;;;-0.68;100.00;99012.56;5046835;28;20020;-73
2023/03/08 08:06:39;;;;;;;12.63;6.65;;;;;;;-0.83;100.00;98996.41;5029256;28;20388;-71
2023/03/08 08:09:05;;;;;;;12.77;7.65;;;;;;;-0.66;100.00;99013.28;5046683;28;20024;-71
2023/03/08 08:11:31;;;;;;;15.00;8.25;;;;;;;-0.52;100.00;99010.28;5028643;28;20477;-71
2023/03/08 08:13:56;;;;;;;10.20;6.65;;;;;;;-0.72;100.00;98993.69;5038440;28;20040;-71
2023/03/08 08:16:22;;;;;;;13.85;7.25;;;;;;;-0.55;100.00;99000.06;5028624;28;20036;-71
2023/03/08 08:18:51;;;;;;;11.20;6.97;;;;;;;-0.41;100.00;98992.78;5028948;28;20033;-73
2023/03/08 08:21:16;;;;;;;12.43;7.35;;;;;;;-0.37;100.00;98991.56;5044084;28;20067;-72
2023/03/08 08:23:42;;;;;;;9.90;6.35;;;;;;;-0.33;100.00;98978.03;5045271;28;20453;-71
2023/03/08 08:26:14;;;;;;;11.88;7.00;;;;;;;-0.13;100.00;98978.88;5023427;28;20026;-73
2023/03/08 08:28:41;;;;;;;12.50;7.38;;;;;;;-0.21;100.00;98960.38;5045543;28;20033;-72
2023/03/08 08:31:09;;;;;;;13.05;6.78;;;;;;;-0.12;100.00;98959.53;5028401;28;20036;-72
2023/03/08 08:33:35;;;;;;;11.48;7.18;;;;;;;-0.19;100.00;98950.56;5046396;28;20037;-72
2023/03/08 08:36:07;;;;;;;7.47;5.35;;;;;;;0.19;100.00;98969.91;5045786;28;20086;-71
2023/03/08 08:38:32;;;;;;;6.93;5.20;;;;;;;-0.07;100.00;98931.13;5046227;28;20044;-74
2023/03/08 08:40:59;;;;;;;8.48;5.05;;;;;;;0.10;100.00;98952.38;5046070;28;20561;-76
2023/03/08 08:43:25;;;;;;;8.60;4.63;;;;;;;0.32;100.00;98946.78;5046089;28;20098;-72
2023/03/08 08:45:53;;;;;;;6.65;4.93;;;;;;;0.56;100.00;98938.47;5045846;28;20136;-71
2023/03/08 08:48:18;;;;;;;6.43;5.28;;;;;;;0.66;100.00;98920.03;5028319;28;20041;-73
2023/03/08 08:50:44;;;;;;;8.57;5.30;;;;;;;0.79;100.00;98904.75;5045428;28;20111;-72
2023/03/08 08:53:09;;;;;;;9.45;5.05;;;;;;;0.91;100.00;98886.19;5044115;28;20044;-71
2023/03/08 08:55:35;;;;;;;7.57;4.43;;;;;;;0.75;100.00;98842.16;5045020;28;20043;-72
2023/03/08 08:58:02;;;;;;;6.35;4.00;;;;;;;0.68;100.00;98805.16;5046125;28;20028;-71
2023/03/08 09:00:28;;;;;;;9.18;5.00;;;;;;;0.98;100.00;98826.81;5027898;28;20029;-72
2023/03/08 09:02:53;;;;;;;;;;;;;;;1.21;100.00;98822.78;5046316;28;20033;-74
2023/03/08 09:05:19;;;;;;;6.57;3.65;;;;;;;1.35;100.00;98794.31;5046042;28;19913;-72
2023/03/08 09:07:44;;;;;;;5.38;3.85;;;;;;;1.60;100.00;98764.59;5044642;28;20050;-71
2023/03/08 09:10:10;;;;;;;5.38;3.55;;;;;;;1.69;100.00;98721.59;5045865;28;20036;-71
2023/03/08 09:12:35;;;;;;;7.07;4.05;;;;;;;1.75;100.00;98674.59;5045432;28;20107;-72
2023/03/08 09:15:02;;;;;;;4.97;3.43;;;;;;;1.78;100.00;98629.53;5045457;28;20067;-74
2023/03/08 09:17:29;;;;;;;4.70;3.70;;;;;;;2.53;100.00;98645.41;5026524;28;20777;-73
2023/03/08 09:19:54;;;;;;;5.78;3.47;;;;;;;2.89;100.00;98569.50;5042703;28;20039;-74
2023/03/08 09:22:20;;;;;;;3.87;3.20;;;;;;;2.97;100.00;98447.41;5042043;28;20115;-73
2023/03/08 09:24:48;;;;;;;4.63;2.78;;;;;;;2.33;100.00;98292.00;5040840;28;20047;-71
2023/03/08 09:27:13;;;;;;;4.32;2.70;;;;;;;1.93;100.00;98243.75;5042975;28;20098;-72
2023/03/08 09:29:38;;;;;;;3.55;2.78;;;;;;;1.68;100.00;98238.53;5023812;28;20079;-74
2023/03/08 09:32:05;;;;;;;4.30;2.50;;;;;;;1.74;100.00;98313.34;5043405;28;20056;-74
2023/03/08 09:34:30;;;;;;;4.47;2.83;;;;;;;1.80;100.00;98344.28;5027402;28;20029;-74
2023/03/08 09:36:56;;;;;;;2.72;2.40;;;;;;;1.91;100.00;98337.84;5043264;28;20360;-73
2023/03/08 09:39:21;;;;;;;4.40;2.75;;;;;;;2.06;100.00;98335.34;5043799;28;20087;-76
2023/03/08 09:41:54;;;;;;;4.63;2.05;;;;;;;2.08;100.00;98276.31;5025754;28;20033;-75
2023/03/08 09:44:42;;;;;;;3.10;2.42;;;;;;;2.29;100.00;98325.78;5040594;28;20013;-72
2023/03/08 09:47:25;;;;;;;3.38;2.33;;;;;;;1.88;100.00;98293.44;5045460;28;20025;-72
2023/03/08 09:49:54;;;;;;;2.70;2.17;;;;;;;1.95;100.00;98325.19;5045066;28;20047;-75
2023/03/08 09:52:29;;;;;;;5.28;3.08;;;;;;;1.69;100.00;98318.28;5026917;28;20027;-75
2023/03/08 09:54:57;;;;;;;3.28;2.38;;;;;;;2.03;100.00;98443.59;5043322;28;20032;-75
2023/03/08 09:57:27;;;;;;;3.97;3.10;;;;;;;2.27;100.00;98442.75;5033302;28;20386;-71
2023/03/08 09:59:55;;;;;;;5.68;2.88;;;;;;;2.08;100.00;98357.06;5026902;28;20124;-75
2023/03/08 10:02:33;;;;;;;4.03;2.10;;;;;;;2.45;100.00;98398.63;5041978;28;20037;-75
2023/03/08 10:05:17;;;;;;;4.35;2.75;;;;;;;1.98;100.00;98246.72;5044613;28;20033;-73
2023/03/08 10:08:02;;;;;;;2.45;2.25;;;;;;;1.66;100.00;98214.25;5026960;28;20033;-73
2023/03/08 10:10:36;;;;;;;;;;;;;;;1.36;100.00;98221.00;5043851;28;20464;-73
2023/03/08 10:13:26;;;;;;;3.45;2.35;;;;;;;1.36;100.00;98317.44;5050349;28;19920;-75
2023/03/08 10:15:57;;;;;;;58.88;4.13;;;;;;;1.20;100.00;98350.63;5043702;28;20040;-75
2023/03/08 10:18:47;;;;;;;4.72;3.20;;;;;;;1.23;100.00;98392.34;5026435;28;20043;-75
2023/03/08 10:21:16;;;;;;;4.88;2.65;;;;;;;1.14;100.00;98401.19;5041695;28;20895;-75
2023/03/08 10:23:45;;;;;;;5.57;2.80;;;;;;;1.21;100.00;98460.03;5043603;28;20108;-75
2023/03/08 10:26:12;;;;;;;3.83;2.50;;;;;;;1.02;100.00;98457.66;5044407;28;20163;-75
2023/03/08 10:28:38;;;;;;;3.25;2.50;;;;;;;0.99;100.00;98505.28;5028508;28;20075;-72
2023/03/08 10:31:20;;;;;;;4.05;2.95;;;;;;;0.90;100.00;98511.47;5026650;28;20068;-72
2023/03/08 10:33:48;;;;;;;4.38;2.50;;;;;;;0.87;100.00;98520.47;5044472;28;20065;-75
2023/03/08 10:36:19;;;;;;;5.30;2.60;;;;;;;0.86;100.00;98549.53;5042799;28;20041;-73
2023/03/08 10:38:56;;;;;;;3.05;2.40;;;;;;;0.75;100.00;98561.94;5026505;28;20037;-75
2023/03/08 10:41:23;;;;;;;3.78;2.92;;;;;;;0.64;100.00;98559.56;5023322;28;20029;-75
2023/03/08 10:43:51;;;;;;;4.82;2.90;;;;;;;0.44;100.00;98566.75;5025563;28;20032;-75
2023/03/08 10:46:27;;;;;;;5.28;3.30;;;;;;;0.52;100.00;98626.41;5044269;28;20041;-75
2023/03/08 10:48:53;;;;;;;3.78;2.50;;;;;;;0.87;100.00;98698.28;5044668;28;20044;-75
2023/03/08 10:51:18;;;;;;;6.32;3.42;;;;;;;0.94;100.00;98704.63;5044221;28;20025;-75
2023/03/08 10:54:05;;;;;;;4.20;2.90;;;;;;;0.93;100.00;98706.38;5042917;28;20037;-75
2023/03/08 10:56:35;;;;;;;7.10;2.95;;;;;;;0.90;100.00;98713.75;5043160;28;20029;-75
2023/03/08 10:59:01;;;;;;;7.60;3.50;;;;;;;0.94;100.00;98736.16;5046065;28;20024;-75
2023/03/08 11:01:33;;;;;;;5.10;3.03;;;;;;;0.92;100.00;98745.97;5037471;28;20028;-75
2023/03/08 11:04:00;;;;;;;4.25;3.17;;;;;;;0.95;100.00;98743.03;5028237;28;20400;-73
2023/03/08 11:06:26;;;;;;;5.22;3.85;;;;;;;0.93;100.00;98735.28;5046965;28;20829;-75
2023/03/08 11:08:54;;;;;;;5.03;2.92;;;;;;;1.09;100.00;98734.63;5047587;28;20052;-75
2023/03/08 11:11:19;;;;;;;5.80;3.15;;;;;;;0.93;100.00;98650.41;5047865;28;20021;-75
2023/03/08 11:13:50;;;;;;;4.93;3.47;;;;;;;1.02;100.00;98655.56;5029970;28;20052;-75
2023/03/08 11:16:50;;;;;;;5.10;3.60;;;;;;;1.06;100.00;98669.22;5047262;28;20118;-76
2023/03/08 11:19:48;;;;;;;7.57;3.95;;;;;;;0.85;100.00;98622.25;5043480;28;20033;-75
2023/03/08 11:22:33;;;;;;;4.30;3.33;;;;;;;0.47;100.00;98557.75;5024335;28;20479;-74
2023/03/08 11:25:11;;;;;;;8.38;3.15;;;;;;;0.67;100.00;98627.53;5021756;28;20043;-73
2023/03/08 11:27:52;;;;;;;4.47;2.65;;;;;;;0.60;100.00;98616.78;5046068;28;20043;-73
2023/03/08 11:30:44;;;;;;;4.20;2.78;;;;;;;0.52;100.00;98602.78;5029952;28;20367;-72